Time;durP1;ratioP1;P1;durP2;ratioP2;P2;SDS_P1;SDS_P2;PMS_P1;PMS_P2;Temp;Humidity;BMP_temperature;BMP_pressure;BME280_temperature;BME280_humidity;BME280_pressure;Samples;Min_cycle;Max_cycle;Signal;HPM_P1;HPM_P2
2022/12/27 00:01:52;;;;;;;92.73;40.20;;;;;;;-141.97;100.00;47828.53;5033671;28;20170;-84
2022/12/27 00:04:18;;;;;;;88.33;36.97;;;;;;;-141.97;100.00;47793.94;5033387;28;20170;-83
2022/12/27 00:06:44;;;;;;;88.13;37.43;;;;;;;-141.97;100.00;47788.19;5033214;28;20162;-84
2022/12/27 00:09:09;;;;;;;88.23;37.93;;;;;;;-141.97;100.00;47842.00;5033379;28;20162;-83
2022/12/27 00:11:35;;;;;;;88.40;39.43;;;;;;;-141.97;100.00;47803.56;5033565;28;20188;-84
2022/12/27 00:14:02;;;;;;;89.47;37.20;;;;;;;-141.97;100.00;47828.53;5033481;28;20166;-83
2022/12/27 00:16:28;;;;;;;81.27;36.70;;;;;;;-141.97;100.00;47843.91;5034179;28;20192;-84
2022/12/27 00:18:54;;;;;;;81.47;35.63;;;;;;;-141.97;100.00;47740.13;5057625;28;20469;-83
2022/12/27 00:21:20;;;;;;;87.30;36.30;;;;;;;-141.97;100.00;47801.63;5048243;28;20178;-83
2022/12/27 00:23:50;;;;;;;79.70;34.80;;;;;;;-141.97;100.00;47734.34;5034456;28;20448;-83
2022/12/27 00:26:23;;;;;;;73.53;33.40;;;;;;;-141.97;100.00;47782.41;5033954;28;20473;-83
2022/12/27 00:28:49;;;;;;;74.13;34.27;;;;;;;-141.97;100.00;47734.34;5032902;28;20912;-83
2022/12/27 00:31:16;;;;;;;81.33;35.43;;;;;;;-141.97;100.00;47759.34;5033390;28;20435;-83
2022/12/27 00:33:43;;;;;;;82.97;36.83;;;;;;;-141.97;100.00;47795.88;5033759;28;20393;-83
2022/12/27 00:36:12;;;;;;;88.17;37.73;;;;;;;-141.97;100.00;47788.19;5047117;28;20453;-83
2022/12/27 00:38:38;;;;;;;81.50;35.63;;;;;;;-141.97;100.00;47832.38;5057062;28;20563;-83
2022/12/27 00:41:04;;;;;;;74.47;35.77;;;;;;;-141.97;100.00;47795.88;5034381;28;20799;-83
2022/12/27 00:43:29;;;;;;;77.67;35.47;;;;;;;-141.97;100.00;47792.03;5033397;28;20185;-83
2022/12/27 00:45:55;;;;;;;80.27;35.80;;;;;;;-141.97;100.00;47745.88;5032988;28;20252;-83
2022/12/27 00:48:20;;;;;;;74.33;34.13;;;;;;;-141.97;100.00;47718.97;5032967;28;20162;-83
2022/12/27 00:50:46;;;;;;;82.93;36.30;;;;;;;-141.97;100.00;47803.56;5032972;28;20188;-82
2022/12/27 00:53:12;;;;;;;75.60;33.70;;;;;;;-141.97;100.00;47728.59;5031988;28;20166;-84
2022/12/27 00:55:40;;;;;;;73.00;33.83;;;;;;;-141.97;100.00;47842.00;5031505;28;20177;-83
2022/12/27 00:58:06;;;;;;;81.17;34.20;;;;;;;-141.97;100.00;47822.78;5032919;28;20409;-83
2022/12/27 01:00:31;;;;;;;71.93;33.30;;;;;;;-141.97;100.00;47757.41;5033573;28;20419;-84
2022/12/27 01:02:56;;;;;;;67.60;32.63;;;;;;;-141.97;100.00;47792.03;5032574;28;20243;-84
2022/12/27 01:05:22;;;;;;;68.63;31.43;;;;;;;-141.97;100.00;47793.94;5014732;28;20276;-82
2022/12/27 01:07:48;;;;;;;75.20;32.70;;;;;;;-141.97;100.00;47822.78;5032161;28;20170;-84
2022/12/27 01:10:13;;;;;;;84.23;37.63;;;;;;;-141.97;100.00;47768.94;5032360;28;20170;-82
2022/12/27 01:12:39;;;;;;;104.87;44.07;;;;;;;-141.97;100.00;47768.94;5032085;28;20174;-83
2022/12/27 01:15:05;;;;;;;89.27;39.73;;;;;;;-141.97;100.00;47768.94;5014685;28;20174;-84
2022/12/27 01:17:31;;;;;;;80.73;34.67;;;;;;;-141.97;100.00;47901.59;5030663;28;20181;-84
2022/12/27 01:19:56;;;;;;;78.43;33.40;;;;;;;-141.97;100.00;47861.22;5028418;28;20485;-85
2022/12/27 01:22:21;;;;;;;67.23;32.53;;;;;;;-141.97;100.00;47799.72;5047284;28;20202;-83
2022/12/27 01:24:47;;;;;;;64.23;30.63;;;;;;;-141.97;100.00;47680.53;5030369;28;20212;-84
2022/12/27 01:27:12;;;;;;;70.67;30.47;;;;;;;-141.97;100.00;47807.41;5030766;28;20589;-84
2022/12/27 01:29:38;;;;;;;61.20;29.93;;;;;;;-141.97;100.00;47792.03;5031851;28;20205;-84
2022/12/27 01:32:03;;;;;;;65.67;30.67;;;;;;;-141.97;100.00;47793.94;5032170;28;20280;-84
2022/12/27 01:34:29;;;;;;;66.00;29.57;;;;;;;-141.97;100.00;47763.19;5032488;28;20181;-83
2022/12/27 01:36:54;;;;;;;72.50;31.17;;;;;;;-141.97;100.00;47784.34;5032024;28;20240;-84
2022/12/27 01:39:19;;;;;;;71.43;31.97;;;;;;;-141.97;100.00;47768.94;5032118;28;20166;-84
2022/12/27 01:44:38;;;;;;;73.07;33.43;;;;;;;-141.97;100.00;47778.56;5035384;28;20197;-84
2022/12/27 01:47:11;;;;;;;70.50;30.17;;;;;;;-141.97;100.00;47818.94;5048799;28;20405;-84
2022/12/27 01:49:39;;;;;;;69.40;31.83;;;;;;;-141.97;100.00;47792.03;5035816;28;20412;-83
2022/12/27 01:52:06;;;;;;;92.30;34.80;;;;;;;-141.97;100.00;47795.88;5046108;28;20511;-82
2022/12/27 01:54:32;;;;;;;110.57;43.40;;;;;;;-141.97;100.00;47778.56;5035284;28;20408;-85
2022/12/27 01:56:57;;;;;;;94.53;37.17;;;;;;;-141.97;100.00;47801.63;5032732;28;20431;-84
2022/12/27 01:59:24;;;;;;;85.87;35.07;;;;;;;-141.97;100.00;47745.88;5032600;28;20180;-84
2022/12/27 02:01:49;;;;;;;82.97;36.33;;;;;;;-141.97;100.00;47751.66;5032271;28;20162;-83
2022/12/27 02:04:22;;;;;;;77.17;35.03;;;;;;;-141.97;100.00;47788.19;5034865;28;20456;-84
2022/12/27 02:06:48;;;;;;;77.07;35.13;;;;;;;-141.97;100.00;47742.03;5036351;28;20646;-84
2022/12/27 02:09:30;;;;;;;72.83;32.90;;;;;;;-141.97;100.00;47895.81;5036041;28;20443;-83
2022/12/27 02:11:56;;;;;;;73.90;32.10;;;;;;;-141.97;100.00;47793.94;5036373;28;20166;-84
2022/12/27 02:14:45;;;;;;;74.33;32.43;;;;;;;-141.97;100.00;47784.34;5035849;28;20460;-83
2022/12/27 02:17:19;;;;;;;82.23;34.17;;;;;;;-141.97;100.00;47772.78;5035943;28;20408;-84
2022/12/27 02:19:59;;;;;;;80.57;34.00;;;;;;;-141.97;100.00;47786.25;5036422;28;20404;-83
2022/12/27 02:25:48;;;;;;;78.83;34.17;;;;;;;-141.97;100.00;47780.47;5035932;28;20403;-83
2022/12/27 02:28:32;;;;;;;97.53;39.17;;;;;;;-141.97;100.00;47780.47;5035352;28;20780;-84
2022/12/27 02:31:28;;;;;;;103.23;41.03;;;;;;;-141.97;100.00;47768.94;5035537;28;20416;-84
2022/12/27 02:33:57;;;;;;;108.47;44.50;;;;;;;-141.97;100.00;47765.09;5035807;28;20412;-83
2022/12/27 02:36:28;;;;;;;88.33;38.93;;;;;;;-141.97;100.00;47757.41;5035699;28;20458;-84
2022/12/27 02:38:58;;;;;;;83.23;37.10;;;;;;;-141.97;100.00;47749.72;5035515;28;20468;-83
2022/12/27 02:53:06;;;;;;;65.37;29.40;;;;;;;-141.97;100.00;47780.47;4974167;28;20430;-83
2022/12/27 02:57:07;;;;;;;79.27;33.70;;;;;;;-141.97;100.00;47792.03;4974359;28;20451;-84
2022/12/27 02:58:36;;;;;;;80.33;33.23;;;;;;;-141.97;100.00;47757.41;4974241;28;20430;-84
2022/12/27 03:04:45;;;;;;;63.73;30.70;;;;;;;-141.97;100.00;47849.69;4974675;28;20869;-83
2022/12/27 03:07:36;;;;;;;56.30;25.70;;;;;;;-141.97;100.00;47784.34;4879974;29;20452;-84
2022/12/27 03:16:22;;;;;;;64.67;28.23;;;;;;;-141.97;100.00;47803.56;4878386;29;20414;-84
2022/12/27 03:18:53;;;;;;;150.27;44.37;;;;;;;-141.97;100.00;47788.19;4879198;29;20436;-84
2022/12/27 03:25:26;;;;;;;76.20;32.23;;;;;;;-141.97;100.00;47747.81;4916118;29;20913;-84
2022/12/27 03:27:16;;;;;;;201.83;54.07;;;;;;;-141.97;100.00;47868.91;4916199;29;20501;-83
2022/12/27 03:35:22;;;;;;;68.63;28.17;;;;;;;-141.97;100.00;47761.25;4916322;29;20473;-84
2022/12/27 03:38:02;;;;;;;67.60;28.93;;;;;;;-141.97;100.00;47784.34;4916182;29;20469;-83
2022/12/27 03:43:39;;;;;;;56.30;25.77;;;;;;;-141.97;100.00;47749.72;4966954;28;20479;-84
2022/12/27 03:46:35;;;;;;;58.67;25.03;;;;;;;-141.97;100.00;47786.25;5014840;28;20496;-84
2022/12/27 03:49:19;;;;;;;68.63;28.43;;;;;;;-141.97;100.00;47828.53;5014424;28;20417;-84
2022/12/27 03:51:54;;;;;;;59.93;26.70;;;;;;;-141.97;100.00;47770.88;4997134;28;20464;-84
2022/12/27 03:54:27;;;;;;;75.90;33.00;;;;;;;-141.97;100.00;47780.47;5015251;28;20423;-83
2022/12/27 03:56:59;;;;;;;76.27;34.27;;;;;;;-141.97;100.00;47799.72;5014286;28;20453;-84
2022/12/27 03:59:25;;;;;;;56.30;26.30;;;;;;;-141.97;100.00;47761.25;5014315;28;20651;-84
2022/12/27 04:01:51;;;;;;;56.40;25.60;;;;;;;-141.97;100.00;47788.19;5014418;28;20440;-84
2022/12/27 04:04:16;;;;;;;56.20;26.43;;;;;;;-141.97;100.00;47832.38;5014496;28;20457;-84
2022/12/27 04:06:42;;;;;;;55.83;25.07;;;;;;;-141.97;100.00;47778.56;4997436;28;20166;-84
2022/12/27 04:36:29;;;;;;;48.30;22.03;;;;;;;-141.97;100.00;47738.19;5014000;28;20396;-83
2022/12/27 04:38:54;;;;;;;48.73;21.90;;;;;;;-141.97;100.00;47784.34;5013910;28;20462;-84
2022/12/27 04:55:26;;;;;;;47.90;22.37;;;;;;;-141.97;100.00;47799.72;5014156;28;20467;-84
2022/12/27 04:57:53;;;;;;;48.20;21.37;;;;;;;-141.97;100.00;47788.19;5017423;28;20402;-84
2022/12/27 05:03:22;;;;;;;47.70;19.57;;;;;;;-141.97;100.00;47797.78;4992180;28;20446;-83
2022/12/27 05:05:50;;;;;;;47.47;21.27;;;;;;;-141.97;100.00;47826.63;4991492;28;20534;-83
2022/12/27 05:13:59;;;;;;;48.70;22.67;;;;;;;-141.97;100.00;47734.34;4991185;28;20437;-83
2022/12/27 05:16:38;;;;;;;49.60;23.37;;;;;;;-141.97;100.00;47817.00;4990946;28;20729;-84
2022/12/27 05:19:09;;;;;;;49.50;23.20;;;;;;;-141.97;100.00;47793.94;5008958;28;21069;-84
2022/12/27 05:25:33;;;;;;;50.00;21.73;;;;;;;-141.97;100.00;47772.78;5010637;28;20406;-84
2022/12/27 05:27:11;;;;;;;51.20;22.37;;;;;;;-141.97;100.00;47755.50;5010561;28;20401;-84
2022/12/27 05:29:37;;;;;;;50.53;24.10;;;;;;;-141.97;100.00;47803.56;5010404;28;20414;-84
2022/12/27 05:32:02;;;;;;;56.93;26.57;;;;;;;-141.97;100.00;47768.94;5009960;28;20260;-83
2022/12/27 05:34:28;;;;;;;55.73;24.13;;;;;;;-141.97;100.00;47811.25;5010371;28;20282;-84
2022/12/27 05:36:53;;;;;;;85.30;38.50;;;;;;;-141.97;100.00;47730.50;5017407;28;20344;-83
2022/12/27 05:39:18;;;;;;;52.90;23.83;;;;;;;-141.97;100.00;47797.78;5031570;28;20162;-84
2022/12/27 05:41:44;;;;;;;49.50;23.23;;;;;;;-141.97;100.00;47761.25;5032143;28;20170;-84
2022/12/27 05:44:09;;;;;;;55.73;27.23;;;;;;;-141.97;100.00;47795.88;5014079;28;20202;-83
2022/12/27 05:46:34;;;;;;;56.80;28.23;;;;;;;-141.97;100.00;47790.09;5032000;28;20178;-83
2022/12/27 05:49:00;;;;;;;92.60;38.00;;;;;;;-141.97;100.00;47780.47;5031592;28;20166;-83
2022/12/27 05:51:25;;;;;;;74.47;33.27;;;;;;;-141.97;100.00;47818.94;5031512;28;20169;-84
2022/12/27 05:53:51;;;;;;;87.27;38.97;;;;;;;-141.97;100.00;47778.56;5032062;28;20166;-83
2022/12/27 05:56:18;;;;;;;97.83;37.63;;;;;;;-141.97;100.00;47749.72;5032195;28;20268;-83
2022/12/27 05:58:45;;;;;;;102.80;40.77;;;;;;;-141.97;100.00;47742.03;5047259;28;20701;-84
2022/12/27 06:01:12;;;;;;;103.90;41.53;;;;;;;-141.97;100.00;47682.47;5046811;28;20417;-84
2022/12/27 06:03:38;;;;;;;103.80;40.63;;;;;;;-141.97;100.00;47782.41;5031462;28;20452;-83
2022/12/27 06:06:04;;;;;;;93.77;39.93;;;;;;;-141.97;100.00;47780.47;5012546;28;20818;-84
2022/12/27 06:08:30;;;;;;;212.30;71.43;;;;;;;-141.97;100.00;47730.50;5031152;28;20584;-83
2022/12/27 06:11:10;;;;;;;123.43;46.30;;;;;;;-141.97;100.00;47803.56;5031606;28;20416;-83
2022/12/27 06:13:37;;;;;;;89.53;37.50;;;;;;;-141.97;100.00;47803.56;5038767;28;20238;-83
2022/12/27 06:16:05;;;;;;;104.37;41.17;;;;;;;-141.97;100.00;47753.56;5051412;28;20439;-83
2022/12/27 06:18:33;;;;;;;88.87;40.07;;;;;;;-141.97;100.00;47790.09;5051834;28;20438;-83
2022/12/27 06:21:08;;;;;;;101.03;43.67;;;;;;;-141.97;100.00;47784.34;5051386;28;20491;-83
2022/12/27 06:23:35;;;;;;;98.17;42.60;;;;;;;-141.97;100.00;47793.94;5051278;28;20451;-84
2022/12/27 06:26:11;;;;;;;107.60;44.97;;;;;;;-141.97;100.00;47807.41;5052056;28;20399;-84
2022/12/27 06:28:36;;;;;;;125.47;54.40;;;;;;;-141.97;100.00;47707.44;5051559;28;20920;-84
2022/12/27 06:31:02;;;;;;;168.83;72.17;;;;;;;-141.97;100.00;47865.06;5051228;28;20456;-83
2022/12/27 06:33:28;;;;;;;252.53;92.37;;;;;;;-141.97;100.00;47772.78;5051390;28;20752;-83
2022/12/27 06:35:54;;;;;;;354.83;137.40;;;;;;;-141.97;93.20;47799.72;5051158;28;20166;-82
2022/12/27 06:38:19;;;;;;;471.50;197.43;;;;;;;-141.97;86.66;47765.09;5050901;28;20220;-83
2022/12/27 06:40:45;;;;;;;139.63;60.23;;;;;;;-141.97;82.41;47845.84;5050838;28;20165;-83
2022/12/27 06:43:11;;;;;;;147.17;58.23;;;;;;;-141.97;81.86;47695.91;5050938;28;20186;-83
2022/12/27 06:45:36;;;;;;;81.90;33.73;;;;;;;-141.97;82.82;47818.94;5028831;28;20213;-83
2022/12/27 06:48:02;;;;;;;65.73;28.97;;;;;;;-141.97;83.96;47753.56;5013262;28;20179;-83
2022/12/27 06:50:28;;;;;;;166.20;67.60;;;;;;;-141.97;84.52;47834.31;5016852;28;20151;-84
2022/12/27 06:52:53;;;;;;;112.43;48.93;;;;;;;-141.97;84.58;47818.94;5042000;28;20653;-83
2022/12/27 06:55:18;;;;;;;235.97;89.27;;;;;;;-141.97;84.49;47799.72;5024348;28;20190;-83
2022/12/27 06:57:44;;;;;;;339.30;131.50;;;;;;;-141.97;85.31;47726.66;5036641;28;20185;-83
2022/12/27 07:00:12;;;;;;;300.77;111.17;;;;;;;-141.97;82.20;47795.88;5034831;28;20173;-84
2022/12/27 07:02:37;;;;;;;286.37;112.20;;;;;;;-141.97;69.05;47745.88;5028686;28;20791;-84
2022/12/27 07:05:03;;;;;;;205.13;87.73;;;;;;;-141.97;63.12;47834.31;5018885;28;20417;-84
2022/12/27 07:07:29;;;;;;;166.07;71.17;;;;;;;-141.97;58.07;47817.00;5014375;28;20250;-85
2022/12/27 07:09:54;;;;;;;250.83;100.07;;;;;;;-141.97;54.81;47797.78;5031651;28;20661;-83
2022/12/27 07:12:19;;;;;;;287.30;101.03;;;;;;;-141.97;53.56;47811.25;5034654;28;20241;-84
2022/12/27 07:14:45;;;;;;;187.73;71.73;;;;;;;-141.97;50.57;47803.56;5031937;28;20620;-83
2022/12/27 07:17:10;;;;;;;211.07;78.10;;;;;;;-141.97;49.61;47915.03;5037840;28;20170;-84
2022/12/27 07:19:36;;;;;;;152.40;65.70;;;;;;;-141.97;48.47;47707.44;5033360;28;20202;-84
2022/12/27 07:22:01;;;;;;;119.63;49.90;;;;;;;-141.97;49.97;47680.53;5033192;28;20220;-85
2022/12/27 07:24:26;;;;;;;114.83;49.93;;;;;;;-141.97;53.18;47845.84;5033178;28;20617;-83
2022/12/27 07:26:52;;;;;;;76.03;36.30;;;;;;;-141.97;52.66;47868.91;5033079;28;20696;-84
2022/12/27 07:29:17;;;;;;;70.93;37.07;;;;;;;-141.97;50.20;47890.06;5015054;28;20181;-84
2022/12/27 07:31:42;;;;;;;135.60;62.27;;;;;;;-141.97;50.76;47765.09;5032960;28;20736;-83
2022/12/27 07:34:09;;;;;;;96.87;49.53;;;;;;;-141.97;53.28;47680.53;5033077;28;20215;-83
2022/12/27 07:36:37;;;;;;;86.77;37.23;;;;;;;-141.97;56.87;47765.09;5032884;28;20174;-84
2022/12/27 07:39:04;;;;;;;73.27;36.60;;;;;;;-141.97;60.47;47682.47;5031495;28;20733;-83
2022/12/27 07:41:30;;;;;;;79.07;37.13;;;;;;;-141.97;62.24;47772.78;5033821;28;20174;-85
2022/12/27 07:43:55;;;;;;;103.33;45.43;;;;;;;-141.97;63.01;47757.41;5022324;28;20599;-84
2022/12/27 07:46:23;;;;;;;243.30;98.13;;;;;;;-141.97;65.20;47768.94;5033990;28;20185;-85
2022/12/27 07:48:51;;;;;;;182.73;76.97;;;;;;;-141.97;67.49;47784.34;5035062;28;20265;-85
2022/12/27 07:51:16;;;;;;;109.60;50.47;;;;;;;-141.97;69.83;47780.47;5016139;28;20282;-84
2022/12/27 07:53:42;;;;;;;71.87;34.03;;;;;;;-141.97;69.92;47786.25;5034002;28;20784;-85
2022/12/27 07:56:14;;;;;;;56.80;27.30;;;;;;;-141.97;69.86;47742.03;5014058;28;20210;-84
2022/12/27 07:58:43;;;;;;;39.47;21.20;;;;;;;-141.97;68.91;47795.88;5014325;28;20216;-86
2022/12/27 08:01:10;;;;;;;36.20;19.17;;;;;;;-141.97;67.75;47817.00;5044430;28;20408;-83
2022/12/27 08:03:35;;;;;;;40.60;18.37;;;;;;;-141.97;66.61;47753.56;5068493;28;20463;-83
2022/12/27 08:06:01;;;;;;;34.97;18.37;;;;;;;-141.97;66.60;47742.03;5019089;28;20197;-84
2022/12/27 08:08:39;;;;;;;39.67;18.57;;;;;;;-141.97;66.33;47782.41;5034772;28;20158;-83
2022/12/27 08:11:05;;;;;;;42.90;20.27;;;;;;;-141.97;65.11;47788.19;5016727;28;20174;-84
2022/12/27 08:13:31;;;;;;;34.90;17.23;;;;;;;-141.97;64.38;47807.41;5034325;28;20167;-83
2022/12/27 08:15:57;;;;;;;34.37;16.60;;;;;;;-141.97;63.32;47742.03;5033523;28;20170;-83
2022/12/27 08:18:22;;;;;;;35.43;18.40;;;;;;;-141.97;62.36;47795.88;5037076;28;20694;-84
2022/12/27 08:20:48;;;;;;;45.10;24.03;;;;;;;-141.97;61.39;47738.19;5056439;28;20158;-84
2022/12/27 08:23:13;;;;;;;42.13;24.27;;;;;;;-141.97;60.39;47734.34;5047806;28;20221;-82
2022/12/27 08:25:38;;;;;;;38.07;21.90;;;;;;;-141.97;60.10;47768.94;5033906;28;20170;-82
2022/12/27 08:28:05;;;;;;;62.33;31.63;;;;;;;-141.97;59.54;47718.97;5033299;28;20263;-84
2022/12/27 08:30:31;;;;;;;51.03;27.47;;;;;;;-141.97;59.81;47795.88;5033047;28;20166;-85
2022/12/27 08:32:57;;;;;;;48.33;27.17;;;;;;;-141.97;59.35;47749.72;5033475;28;20208;-83
2022/12/27 08:35:22;;;;;;;53.87;30.10;;;;;;;-141.97;58.52;47772.78;5014942;28;20178;-83
2022/12/27 08:37:48;;;;;;;52.93;30.07;;;;;;;-141.97;58.24;47855.44;5027563;28;20267;-84
2022/12/27 08:40:13;;;;;;;48.07;26.03;;;;;;;-141.97;58.22;47776.63;5013427;28;20576;-83
2022/12/27 08:42:39;;;;;;;44.60;24.77;;;;;;;-141.97;59.31;47826.63;5013311;28;20269;-83
2022/12/27 08:45:04;;;;;;;30.80;17.87;;;;;;;-141.97;59.00;47743.97;5013579;28;20230;-84
2022/12/27 08:47:30;;;;;;;38.17;20.73;;;;;;;-141.97;58.41;47805.47;5014628;28;20194;-85
2022/12/27 08:49:55;;;;;;;37.20;22.77;;;;;;;-141.97;57.44;47788.19;5013039;28;20183;-83
2022/12/27 08:52:20;;;;;;;40.10;22.00;;;;;;;-141.97;57.27;47659.38;5012935;28;20201;-83
2022/12/27 08:54:46;;;;;;;45.70;24.63;;;;;;;-141.97;57.11;47834.31;5011822;28;20278;-84
2022/12/27 08:57:11;;;;;;;63.93;31.07;;;;;;;-141.97;57.00;47772.78;5012736;28;20662;-83
2022/12/27 08:59:36;;;;;;;46.63;23.20;;;;;;;-141.97;56.43;47724.75;5012798;28;20167;-83
2022/12/27 09:02:02;;;;;;;43.40;23.20;;;;;;;-141.97;55.67;47784.34;5013949;28;20170;-84
2022/12/27 09:04:27;;;;;;;42.17;20.93;;;;;;;-141.97;54.95;47788.19;5017753;28;20216;-83
2022/12/27 09:06:53;;;;;;;39.27;18.90;;;;;;;-141.97;54.59;47768.94;5022234;28;20221;-83
2022/12/27 09:09:18;;;;;;;36.77;17.90;;;;;;;-141.97;54.31;47778.56;5012463;28;20521;-84
2022/12/27 09:11:43;;;;;;;38.63;19.40;;;;;;;-141.97;53.62;47742.03;5030857;28;20256;-84
2022/12/27 09:14:09;;;;;;;52.87;25.10;;;;;;;-141.97;53.07;47782.41;5028443;28;20252;-83
2022/12/27 09:16:35;;;;;;;92.97;44.57;;;;;;;-141.97;53.45;47792.03;5030947;28;20166;-82
2022/12/27 09:19:00;;;;;;;75.13;40.37;;;;;;;-141.97;53.68;47638.25;5014904;28;20174;-82
2022/12/27 09:21:28;;;;;;;78.27;37.97;;;;;;;-141.97;52.70;47697.84;5033163;28;20174;-83
2022/12/27 09:23:54;;;;;;;60.03;31.90;;;;;;;-141.97;53.41;47736.28;5015245;28;20332;-84
2022/12/27 09:26:26;;;;;;;38.60;20.60;;;;;;;-141.97;52.90;47753.56;5037099;28;20628;-82
2022/12/27 09:28:52;;;;;;;39.73;21.80;;;;;;;-141.97;52.71;47788.19;5022051;28;20173;-82
2022/12/27 09:31:19;;;;;;;41.23;21.60;;;;;;;-141.97;52.75;47738.19;5035468;28;20177;-82
2022/12/27 09:33:45;;;;;;;38.53;19.93;;;;;;;-141.97;53.07;47767.03;5032663;28;20180;-83
2022/12/27 09:36:14;;;;;;;27.13;16.13;;;;;;;-141.97;53.04;47743.97;5031721;28;20569;-83
2022/12/27 09:38:41;;;;;;;35.67;18.13;;;;;;;-141.97;52.67;47768.94;5032244;28;20320;-83
2022/12/27 09:41:46;;;;;;;40.83;22.57;;;;;;;-141.97;52.00;47734.34;5037627;28;20174;-83
2022/12/27 09:44:21;;;;;;;49.60;28.17;;;;;;;-141.97;51.82;47797.78;4998295;28;20223;-83
2022/12/27 09:47:16;;;;;;;49.57;22.93;;;;;;;-141.97;52.38;47740.13;4992923;28;20183;-83
2022/12/27 09:49:47;;;;;;;36.13;20.30;;;;;;;-141.97;51.16;47684.38;4992564;28;20191;-84
2022/12/27 09:52:17;;;;;;;32.23;19.00;;;;;;;-141.97;51.34;47763.19;4993616;28;20656;-82
2022/12/27 09:54:43;;;;;;;36.30;20.90;;;;;;;-141.97;51.06;47738.19;4996440;28;20199;-82
2022/12/27 09:57:18;;;;;;;40.57;24.50;;;;;;;-141.97;50.61;47742.03;4995345;28;20190;-82
2022/12/27 09:59:50;;;;;;;53.73;31.00;;;;;;;-141.97;50.52;47715.13;4994502;28;20225;-83
2022/12/27 10:02:24;;;;;;;54.40;30.97;;;;;;;-141.97;50.49;47722.81;4993442;28;20191;-83
2022/12/27 10:04:52;;;;;;;58.67;27.30;;;;;;;-141.97;50.91;47728.59;4977461;28;20182;-83
2022/12/27 10:07:31;;;;;;;52.53;27.87;;;;;;;-141.97;50.87;47749.72;4990892;28;20204;-83
2022/12/27 10:10:21;;;;;;;143.70;68.00;;;;;;;-141.97;51.10;47745.88;4991271;28;20175;-83
2022/12/27 10:12:55;;;;;;;123.07;59.10;;;;;;;-141.97;50.54;47757.41;4989985;28;20171;-83
2022/12/27 10:15:24;;;;;;;159.27;90.33;;;;;;;-141.97;50.11;47734.34;4990428;28;20198;-82
2022/12/27 10:18:12;;;;;;;120.37;71.83;;;;;;;-141.97;51.69;47765.09;4990595;28;20259;-82
2022/12/27 10:20:52;;;;;;;188.37;107.40;;;;;;;-141.97;51.36;47763.19;5006168;28;20189;-82
2022/12/27 10:23:30;;;;;;;98.83;52.67;;;;;;;-141.97;50.72;47743.97;5046618;28;20204;-83
2022/12/27 10:25:59;;;;;;;101.20;56.37;;;;;;;-141.97;50.55;47718.97;5055300;28;20157;-83
2022/12/27 10:28:33;;;;;;;78.50;45.43;;;;;;;-141.97;50.00;47743.97;5048923;28;20178;-84
2022/12/27 10:31:02;;;;;;;67.17;38.77;;;;;;;-141.97;49.42;47711.28;5035851;28;20179;-83
2022/12/27 10:33:31;;;;;;;67.23;37.17;;;;;;;-141.97;48.51;47853.53;5036447;28;20162;-84
2022/12/27 10:35:57;;;;;;;48.27;28.27;;;;;;;-141.97;48.58;47697.84;5017915;28;20256;-83
2022/12/27 10:38:24;;;;;;;49.33;28.87;;;;;;;-141.97;48.60;47684.38;5029765;28;20218;-83
2022/12/27 10:41:11;;;;;;;47.33;28.37;;;;;;;-141.97;48.31;47699.75;5016007;28;20194;-82
2022/12/27 10:43:40;;;;;;;39.33;22.03;;;;;;;-141.97;47.64;47728.59;5016175;28;20606;-83
2022/12/27 10:46:15;;;;;;;39.97;24.57;;;;;;;-141.97;47.31;47728.59;5015946;28;20186;-83
2022/12/27 10:48:58;;;;;;;60.10;35.20;;;;;;;-141.97;47.16;47699.75;5015490;28;20196;-84
2022/12/27 10:51:27;;;;;;;49.43;29.57;;;;;;;-141.97;47.02;47740.13;5015561;28;20242;-84
2022/12/27 10:53:58;;;;;;;56.57;30.67;;;;;;;-141.97;47.64;47749.72;5015564;28;20221;-83
2022/12/27 10:56:26;;;;;;;36.07;19.63;;;;;;;-141.97;47.86;47688.22;5015988;28;20196;-83
2022/12/27 10:59:12;;;;;;;78.40;39.07;;;;;;;-141.97;47.50;47676.69;5016332;28;20308;-84
2022/12/27 11:01:38;;;;;;;43.93;20.60;;;;;;;-141.97;47.67;47730.50;5014833;28;20190;-84
2022/12/27 11:04:23;;;;;;;37.83;20.47;;;;;;;-141.97;48.07;47730.50;5015564;28;20191;-86
2022/12/27 11:06:50;;;;;;;27.60;14.97;;;;;;;-141.97;48.27;47722.81;5007631;28;20241;-83
2022/12/27 11:09:25;;;;;;;23.37;14.10;;;;;;;-141.97;49.26;47726.66;5023860;28;20175;-82
2022/12/27 11:11:51;;;;;;;29.37;15.87;;;;;;;-141.97;48.99;47738.19;5017809;28;20169;-83
2022/12/27 11:14:19;;;;;;;37.33;19.20;;;;;;;-141.97;48.64;47684.38;5017145;28;20217;-84
2022/12/27 11:16:46;;;;;;;41.90;22.20;;;;;;;-141.97;48.53;47726.66;5014956;28;20631;-83
2022/12/27 11:19:22;;;;;;;43.93;23.60;;;;;;;-141.97;48.00;47749.72;5014185;28;20546;-82
2022/12/27 11:21:48;;;;;;;53.30;26.27;;;;;;;-141.97;48.05;47718.97;5014615;28;20162;-83
2022/12/27 11:24:16;;;;;;;42.73;23.93;;;;;;;-141.97;47.83;47713.22;5014756;28;20733;-84
2022/12/27 11:26:53;;;;;;;45.67;21.90;;;;;;;-141.97;48.14;47724.75;5014735;28;20166;-84
2022/12/27 11:29:22;;;;;;;31.67;16.83;;;;;;;-141.97;47.79;47703.59;5014273;28;20249;-83
2022/12/27 11:31:48;;;;;;;27.60;13.07;;;;;;;-141.97;47.12;47724.75;5013115;28;20181;-83
2022/12/27 11:34:15;;;;;;;21.77;10.70;;;;;;;-141.97;46.52;47734.34;5014510;28;20258;-85
2022/12/27 11:36:44;;;;;;;20.13;8.97;;;;;;;-141.97;46.53;47734.34;5012017;28;20587;-83
2022/12/27 11:39:50;;;;;;;20.90;10.07;;;;;;;-141.97;45.93;47707.44;5036640;28;20296;-84
2022/12/27 11:42:37;;;;;;;18.77;8.90;;;;;;;-141.97;46.15;47695.91;5024013;28;20174;-83
2022/12/27 11:45:17;;;;;;;32.10;11.53;;;;;;;-141.97;46.08;47694.00;5012950;28;20198;-83
2022/12/27 11:47:48;;;;;;;20.03;9.70;;;;;;;-141.97;46.01;47703.59;5014180;28;20185;-84
2022/12/27 11:50:38;;;;;;;37.37;13.30;;;;;;;-141.97;45.76;47734.34;5014577;28;20214;-84
2022/12/27 11:53:03;;;;;;;39.87;22.60;;;;;;;-141.97;45.23;47705.53;5014918;28;20217;-84
2022/12/27 11:55:38;;;;;;;43.93;22.40;;;;;;;-141.97;45.08;47701.69;5014099;28;20174;-84
2022/12/27 11:58:50;;;;;;;36.83;22.17;;;;;;;-141.97;45.05;47780.47;5014845;28;20269;-85
2022/12/27 12:01:28;;;;;;;34.17;21.57;;;;;;;-141.97;45.32;47715.13;5018030;28;20219;-83
2022/12/27 12:04:12;;;;;;;38.83;22.07;;;;;;;-141.97;45.58;47715.13;5017855;28;20186;-84
2022/12/27 12:07:15;;;;;;;30.00;16.23;;;;;;;-141.97;46.37;47730.50;5019427;28;20251;-86
2022/12/27 12:10:02;;;;;;;19.20;11.23;;;;;;;-141.97;45.87;47717.06;5029018;28;20165;-86
2022/12/27 12:13:08;;;;;;;19.30;10.50;;;;;;;-141.97;45.69;47686.31;5059926;28;20158;-86
2022/12/27 12:16:05;;;;;;;22.00;9.90;;;;;;;-141.97;45.32;47695.91;5062061;28;20157;-85
2022/12/27 12:18:36;;;;;;;23.43;10.87;;;;;;;-141.97;45.65;47717.06;5056722;28;20201;-85
2022/12/27 12:21:39;;;;;;;21.97;10.70;;;;;;;-141.97;45.28;47713.22;5037277;28;20642;-83
2022/12/27 12:24:19;;;;;;;33.73;13.90;;;;;;;-141.97;45.06;47707.44;5017435;28;20307;-84
2022/12/27 12:27:22;;;;;;;36.60;18.43;;;;;;;-141.97;45.23;47690.16;5035378;28;20169;-84
2022/12/27 12:30:24;;;;;;;27.20;13.60;;;;;;;-141.97;45.29;47690.16;5035380;28;20170;-84
2022/12/27 12:33:19;;;;;;;17.57;8.67;;;;;;;-141.97;45.23;47722.81;5035680;28;20174;-84
2022/12/27 12:35:54;;;;;;;9.80;6.20;;;;;;;-141.97;45.40;47690.16;5040311;28;20172;-82
2022/12/27 12:38:31;;;;;;;9.47;5.03;;;;;;;-141.97;45.37;47707.44;5036305;28;20229;-83
2022/12/27 12:41:18;;;;;;;11.73;6.47;;;;;;;-141.97;45.32;47742.03;5020690;28;20182;-84
2022/12/27 12:43:56;;;;;;;13.90;7.07;;;;;;;-141.97;45.61;47697.84;5036481;28;20202;-84
2022/12/27 12:46:27;;;;;;;10.70;5.97;;;;;;;-141.97;45.55;47724.75;5031938;28;20185;-83